sensor_id;sensor_type;location;lat;lon;timestamp;temperature;humidity
43858;DHT22;29507;51.284;5.758;2022-10-16T00:00:44;12.00;99.90
43858;DHT22;29507;51.284;5.758;2022-10-16T00:03:10;12.10;99.90
43858;DHT22;29507;51.284;5.758;2022-10-16T00:05:41;12.10;99.90
43858;DHT22;29507;51.284;5.758;2022-10-16T00:08:08;12.10;99.90
43858;DHT22;29507;51.284;5.758;2022-10-16T00:10:34;12.20;99.90
43858;DHT22;29507;51.284;5.758;2022-10-16T00:12:59;12.10;99.90
43858;DHT22;29507;51.284;5.758;2022-10-16T00:15:25;12.10;99.90
43858;DHT22;29507;51.284;5.758;2022-10-16T00:17:50;12.10;99.90
43858;DHT22;29507;51.284;5.758;2022-10-16T00:20:16;12.10;99.90
43858;DHT22;29507;51.284;5.758;2022-10-16T00:22:41;12.10;99.90
43858;DHT22;29507;51.284;5.758;2022-10-16T00:25:07;12.10;99.90
43858;DHT22;29507;51.284;5.758;2022-10-16T00:27:33;12.10;99.90
43858;DHT22;29507;51.284;5.758;2022-10-16T00:29:59;12.10;99.90
43858;DHT22;29507;51.284;5.758;2022-10-16T00:32:25;12.00;99.90
43858;DHT22;29507;51.284;5.758;2022-10-16T00:34:50;12.00;99.90
43858;DHT22;29507;51.284;5.758;2022-10-16T00:37:16;12.00;99.90
43858;DHT22;29507;51.284;5.758;2022-10-16T00:39:41;11.90;99.90
43858;DHT22;29507;51.284;5.758;2022-10-16T00:42:11;11.90;99.90
43858;DHT22;29507;51.284;5.758;2022-10-16T00:44:56;11.90;99.90
43858;DHT22;29507;51.284;5.758;2022-10-16T00:47:42;11.90;99.90
43858;DHT22;29507;51.284;5.758;2022-10-16T00:50:24;11.90;99.90
43858;DHT22;29507;51.284;5.758;2022-10-16T00:52:53;11.90;99.90
43858;DHT22;29507;51.284;5.758;2022-10-16T00:55:19;12.00;99.90
43858;DHT22;29507;51.284;5.758;2022-10-16T00:57:45;12.00;99.90
43858;DHT22;29507;51.284;5.758;2022-10-16T01:00:15;12.10;99.90
43858;DHT22;29507;51.284;5.758;2022-10-16T01:02:42;12.10;99.90
43858;DHT22;29507;51.284;5.758;2022-10-16T01:05:08;12.00;99.90
43858;DHT22;29507;51.284;5.758;2022-10-16T01:07:55;12.00;99.90
43858;DHT22;29507;51.284;5.758;2022-10-16T01:13:07;11.80;99.90
43858;DHT22;29507;51.284;5.758;2022-10-16T01:15:54;11.80;99.90
43858;DHT22;29507;51.284;5.758;2022-10-16T01:18:39;11.70;99.90
43858;DHT22;29507;51.284;5.758;2022-10-16T01:26:36;11.70;99.90
43858;DHT22;29507;51.284;5.758;2022-10-16T01:29:12;11.70;99.90
43858;DHT22;29507;51.284;5.758;2022-10-16T01:31:41;11.60;99.90
43858;DHT22;29507;51.284;5.758;2022-10-16T01:34:11;11.50;99.90
43858;DHT22;29507;51.284;5.758;2022-10-16T01:36:52;11.40;99.90
43858;DHT22;29507;51.284;5.758;2022-10-16T01:39:20;11.30;99.90
43858;DHT22;29507;51.284;5.758;2022-10-16T01:41:50;11.20;99.90
43858;DHT22;29507;51.284;5.758;2022-10-16T01:44:20;11.20;99.90
43858;DHT22;29507;51.284;5.758;2022-10-16T01:46:49;11.30;99.90
43858;DHT22;29507;51.284;5.758;2022-10-16T01:49:17;11.20;99.90
43858;DHT22;29507;51.284;5.758;2022-10-16T01:51:45;11.20;99.90
43858;DHT22;29507;51.284;5.758;2022-10-16T01:54:12;11.20;99.90
43858;DHT22;29507;51.284;5.758;2022-10-16T01:56:39;11.30;99.90
43858;DHT22;29507;51.284;5.758;2022-10-16T01:59:09;11.20;99.90
43858;DHT22;29507;51.284;5.758;2022-10-16T02:01:39;11.20;99.90
43858;DHT22;29507;51.284;5.758;2022-10-16T02:04:34;11.20;99.90
43858;DHT22;29507;51.284;5.758;2022-10-16T02:07:01;11.10;99.90
43858;DHT22;29507;51.284;5.758;2022-10-16T02:09:27;11.10;99.90
43858;DHT22;29507;51.284;5.758;2022-10-16T02:11:55;11.10;99.90
43858;DHT22;29507;51.284;5.758;2022-10-16T02:14:22;11.10;99.90
43858;DHT22;29507;51.284;5.758;2022-10-16T02:16:50;11.10;99.90
43858;DHT22;29507;51.284;5.758;2022-10-16T02:19:17;11.10;99.90
43858;DHT22;29507;51.284;5.758;2022-10-16T02:21:55;11.10;99.90
43858;DHT22;29507;51.284;5.758;2022-10-16T02:24:30;11.10;99.90
43858;DHT22;29507;51.284;5.758;2022-10-16T02:27:10;11.00;99.90
43858;DHT22;29507;51.284;5.758;2022-10-16T02:29:40;11.00;99.90
43858;DHT22;29507;51.284;5.758;2022-10-16T02:32:11;10.90;99.90
43858;DHT22;29507;51.284;5.758;2022-10-16T02:34:39;11.10;99.90
43858;DHT22;29507;51.284;5.758;2022-10-16T02:37:06;11.20;99.90
43858;DHT22;29507;51.284;5.758;2022-10-16T02:39:32;11.20;99.90
43858;DHT22;29507;51.284;5.758;2022-10-16T02:41:59;11.20;99.90
43858;DHT22;29507;51.284;5.758;2022-10-16T02:44:24;11.40;99.90
43858;DHT22;29507;51.284;5.758;2022-10-16T02:46:50;11.30;99.90
43858;DHT22;29507;51.284;5.758;2022-10-16T02:49:15;11.30;99.90
43858;DHT22;29507;51.284;5.758;2022-10-16T02:51:41;11.30;99.90
43858;DHT22;29507;51.284;5.758;2022-10-16T02:54:06;11.40;99.90
43858;DHT22;29507;51.284;5.758;2022-10-16T02:56:32;11.40;99.90
43858;DHT22;29507;51.284;5.758;2022-10-16T02:58:58;11.50;99.90
43858;DHT22;29507;51.284;5.758;2022-10-16T03:01:24;11.50;99.90
43858;DHT22;29507;51.284;5.758;2022-10-16T03:03:49;11.50;99.90
43858;DHT22;29507;51.284;5.758;2022-10-16T03:06:15;11.50;99.90
43858;DHT22;29507;51.284;5.758;2022-10-16T03:08:41;11.50;99.90
43858;DHT22;29507;51.284;5.758;2022-10-16T03:11:07;11.60;99.90
43858;DHT22;29507;51.284;5.758;2022-10-16T03:13:32;11.60;99.90
43858;DHT22;29507;51.284;5.758;2022-10-16T03:15:58;11.50;99.90
43858;DHT22;29507;51.284;5.758;2022-10-16T03:18:23;11.50;99.90
43858;DHT22;29507;51.284;5.758;2022-10-16T03:20:49;11.50;99.90
43858;DHT22;29507;51.284;5.758;2022-10-16T03:23:14;11.40;99.90
43858;DHT22;29507;51.284;5.758;2022-10-16T03:25:40;11.50;99.90
43858;DHT22;29507;51.284;5.758;2022-10-16T03:28:06;11.50;99.90
43858;DHT22;29507;51.284;5.758;2022-10-16T03:30:31;11.50;99.90
43858;DHT22;29507;51.284;5.758;2022-10-16T03:32:57;11.60;99.90
43858;DHT22;29507;51.284;5.758;2022-10-16T03:35:24;11.50;99.90
43858;DHT22;29507;51.284;5.758;2022-10-16T03:37:50;11.60;99.90
43858;DHT22;29507;51.284;5.758;2022-10-16T03:40:16;11.70;99.90
43858;DHT22;29507;51.284;5.758;2022-10-16T03:42:43;11.60;99.90
43858;DHT22;29507;51.284;5.758;2022-10-16T03:45:09;11.70;99.90
43858;DHT22;29507;51.284;5.758;2022-10-16T03:47:34;11.70;99.90
43858;DHT22;29507;51.284;5.758;2022-10-16T03:50:00;11.60;99.90
43858;DHT22;29507;51.284;5.758;2022-10-16T03:52:25;11.70;99.90
43858;DHT22;29507;51.284;5.758;2022-10-16T03:54:51;11.60;99.90
43858;DHT22;29507;51.284;5.758;2022-10-16T03:57:17;11.60;99.90
43858;DHT22;29507;51.284;5.758;2022-10-16T03:59:43;11.60;99.90
43858;DHT22;29507;51.284;5.758;2022-10-16T04:02:09;11.60;99.90
43858;DHT22;29507;51.284;5.758;2022-10-16T04:04:34;11.60;99.90
43858;DHT22;29507;51.284;5.758;2022-10-16T04:07:00;11.70;99.90
43858;DHT22;29507;51.284;5.758;2022-10-16T04:09:26;11.70;99.90
43858;DHT22;29507;51.284;5.758;2022-10-16T04:11:51;11.60;99.90
43858;DHT22;29507;51.284;5.758;2022-10-16T04:14:17;11.60;99.90
43858;DHT22;29507;51.284;5.758;2022-10-16T04:16:42;11.60;99.90
43858;DHT22;29507;51.284;5.758;2022-10-16T04:19:09;11.70;99.90
43858;DHT22;29507;51.284;5.758;2022-10-16T04:21:35;11.70;99.90
43858;DHT22;29507;51.284;5.758;2022-10-16T04:24:00;11.60;99.90
43858;DHT22;29507;51.284;5.758;2022-10-16T04:26:26;11.60;99.90
43858;DHT22;29507;51.284;5.758;2022-10-16T04:28:51;11.60;99.90
43858;DHT22;29507;51.284;5.758;2022-10-16T04:31:17;11.60;99.90
43858;DHT22;29507;51.284;5.758;2022-10-16T04:33:43;11.60;99.90
43858;DHT22;29507;51.284;5.758;2022-10-16T04:36:09;11.60;99.90
43858;DHT22;29507;51.284;5.758;2022-10-16T04:38:34;11.70;99.90
43858;DHT22;29507;51.284;5.758;2022-10-16T04:41:00;11.70;99.90
43858;DHT22;29507;51.284;5.758;2022-10-16T04:43:26;11.80;99.90
43858;DHT22;29507;51.284;5.758;2022-10-16T04:45:52;11.80;99.90
43858;DHT22;29507;51.284;5.758;2022-10-16T04:48:18;11.70;99.90
43858;DHT22;29507;51.284;5.758;2022-10-16T04:50:44;11.80;99.90
43858;DHT22;29507;51.284;5.758;2022-10-16T04:53:09;11.80;99.90
43858;DHT22;29507;51.284;5.758;2022-10-16T04:55:35;11.80;99.90
43858;DHT22;29507;51.284;5.758;2022-10-16T04:58:01;11.70;99.90
43858;DHT22;29507;51.284;5.758;2022-10-16T05:00:27;11.80;99.90
43858;DHT22;29507;51.284;5.758;2022-10-16T05:02:52;11.80;99.90
43858;DHT22;29507;51.284;5.758;2022-10-16T05:05:18;11.80;99.90
43858;DHT22;29507;51.284;5.758;2022-10-16T05:07:47;11.80;99.90
43858;DHT22;29507;51.284;5.758;2022-10-16T05:10:13;11.70;99.90
43858;DHT22;29507;51.284;5.758;2022-10-16T05:12:38;11.70;99.90
43858;DHT22;29507;51.284;5.758;2022-10-16T05:15:04;11.70;99.90
43858;DHT22;29507;51.284;5.758;2022-10-16T05:17:30;11.60;99.90
43858;DHT22;29507;51.284;5.758;2022-10-16T05:19:56;11.60;99.90
43858;DHT22;29507;51.284;5.758;2022-10-16T05:22:21;11.60;99.90
43858;DHT22;29507;51.284;5.758;2022-10-16T05:24:47;11.60;99.90
43858;DHT22;29507;51.284;5.758;2022-10-16T05:27:13;11.60;99.90
43858;DHT22;29507;51.284;5.758;2022-10-16T05:29:45;11.70;99.90
43858;DHT22;29507;51.284;5.758;2022-10-16T05:32:12;11.70;99.90
43858;DHT22;29507;51.284;5.758;2022-10-16T05:34:37;11.70;99.90
43858;DHT22;29507;51.284;5.758;2022-10-16T05:37:03;11.60;99.90
43858;DHT22;29507;51.284;5.758;2022-10-16T05:39:28;11.60;99.90
43858;DHT22;29507;51.284;5.758;2022-10-16T05:41:54;11.60;99.90
43858;DHT22;29507;51.284;5.758;2022-10-16T05:44:20;11.70;99.90
43858;DHT22;29507;51.284;5.758;2022-10-16T05:46:46;11.80;99.90
43858;DHT22;29507;51.284;5.758;2022-10-16T05:49:12;11.80;99.90
43858;DHT22;29507;51.284;5.758;2022-10-16T05:51:38;11.80;99.90
43858;DHT22;29507;51.284;5.758;2022-10-16T05:54:03;11.80;99.90
43858;DHT22;29507;51.284;5.758;2022-10-16T05:56:29;11.80;99.90
43858;DHT22;29507;51.284;5.758;2022-10-16T05:58:55;11.80;99.90
43858;DHT22;29507;51.284;5.758;2022-10-16T06:01:20;11.80;99.90
43858;DHT22;29507;51.284;5.758;2022-10-16T06:03:52;11.70;99.90
43858;DHT22;29507;51.284;5.758;2022-10-16T06:06:20;11.70;99.90
43858;DHT22;29507;51.284;5.758;2022-10-16T06:08:46;11.70;99.90
43858;DHT22;29507;51.284;5.758;2022-10-16T06:11:25;11.70;99.90
43858;DHT22;29507;51.284;5.758;2022-10-16T06:13:52;11.80;99.90
43858;DHT22;29507;51.284;5.758;2022-10-16T06:16:18;11.80;99.90
43858;DHT22;29507;51.284;5.758;2022-10-16T06:18:44;11.80;99.90
43858;DHT22;29507;51.284;5.758;2022-10-16T06:21:16;11.80;99.90
43858;DHT22;29507;51.284;5.758;2022-10-16T06:23:42;11.70;99.90
43858;DHT22;29507;51.284;5.758;2022-10-16T06:26:10;11.80;99.90
43858;DHT22;29507;51.284;5.758;2022-10-16T06:28:37;11.80;99.90
43858;DHT22;29507;51.284;5.758;2022-10-16T06:31:03;11.80;99.90
43858;DHT22;29507;51.284;5.758;2022-10-16T06:33:29;11.90;99.90
43858;DHT22;29507;51.284;5.758;2022-10-16T06:38:31;11.80;99.90
43858;DHT22;29507;51.284;5.758;2022-10-16T06:40:57;11.90;99.90
43858;DHT22;29507;51.284;5.758;2022-10-16T06:43:23;12.00;99.90
43858;DHT22;29507;51.284;5.758;2022-10-16T06:45:56;12.00;99.90
43858;DHT22;29507;51.284;5.758;2022-10-16T06:48:23;12.00;99.90
43858;DHT22;29507;51.284;5.758;2022-10-16T06:51:07;11.90;99.90
43858;DHT22;29507;51.284;5.758;2022-10-16T06:53:36;11.90;99.90
43858;DHT22;29507;51.284;5.758;2022-10-16T06:56:19;11.90;99.90
43858;DHT22;29507;51.284;5.758;2022-10-16T06:58:46;11.90;99.90
43858;DHT22;29507;51.284;5.758;2022-10-16T07:01:13;12.00;99.90
43858;DHT22;29507;51.284;5.758;2022-10-16T07:03:43;12.40;99.90
43858;DHT22;29507;51.284;5.758;2022-10-16T07:06:11;12.60;99.90
43858;DHT22;29507;51.284;5.758;2022-10-16T07:08:39;12.60;99.90
43858;DHT22;29507;51.284;5.758;2022-10-16T07:11:08;12.70;99.90
43858;DHT22;29507;51.284;5.758;2022-10-16T07:13:34;12.70;99.90
43858;DHT22;29507;51.284;5.758;2022-10-16T07:18:35;12.70;99.90
43858;DHT22;29507;51.284;5.758;2022-10-16T07:21:09;12.80;99.90
43858;DHT22;29507;51.284;5.758;2022-10-16T07:23:36;12.80;99.90
43858;DHT22;29507;51.284;5.758;2022-10-16T07:26:02;12.80;99.90
43858;DHT22;29507;51.284;5.758;2022-10-16T07:28:28;12.90;99.90
43858;DHT22;29507;51.284;5.758;2022-10-16T07:30:54;13.00;99.90
43858;DHT22;29507;51.284;5.758;2022-10-16T07:33:20;13.00;99.90
43858;DHT22;29507;51.284;5.758;2022-10-16T07:35:50;13.10;99.90
43858;DHT22;29507;51.284;5.758;2022-10-16T07:38:16;13.10;99.90
43858;DHT22;29507;51.284;5.758;2022-10-16T07:40:41;13.20;99.90
43858;DHT22;29507;51.284;5.758;2022-10-16T07:43:07;13.30;99.90
43858;DHT22;29507;51.284;5.758;2022-10-16T07:45:32;13.40;99.90
43858;DHT22;29507;51.284;5.758;2022-10-16T07:47:58;13.60;99.90
43858;DHT22;29507;51.284;5.758;2022-10-16T07:50:24;13.60;99.90
43858;DHT22;29507;51.284;5.758;2022-10-16T07:52:49;13.80;99.90
43858;DHT22;29507;51.284;5.758;2022-10-16T07:55:15;13.90;99.90
43858;DHT22;29507;51.284;5.758;2022-10-16T07:57:40;13.90;99.90
43858;DHT22;29507;51.284;5.758;2022-10-16T08:00:06;13.90;99.90
43858;DHT22;29507;51.284;5.758;2022-10-16T08:02:32;14.10;99.90
43858;DHT22;29507;51.284;5.758;2022-10-16T08:04:58;14.10;99.90
43858;DHT22;29507;51.284;5.758;2022-10-16T08:07:23;14.10;99.90
43858;DHT22;29507;51.284;5.758;2022-10-16T08:09:49;14.20;99.90
43858;DHT22;29507;51.284;5.758;2022-10-16T08:12:17;14.30;99.90
43858;DHT22;29507;51.284;5.758;2022-10-16T08:14:42;14.40;99.90
43858;DHT22;29507;51.284;5.758;2022-10-16T08:17:08;14.50;99.90
43858;DHT22;29507;51.284;5.758;2022-10-16T08:19:33;14.60;99.90
43858;DHT22;29507;51.284;5.758;2022-10-16T08:22:00;14.60;99.90
43858;DHT22;29507;51.284;5.758;2022-10-16T08:24:26;14.60;99.90
43858;DHT22;29507;51.284;5.758;2022-10-16T08:26:54;14.80;99.90
43858;DHT22;29507;51.284;5.758;2022-10-16T08:29:19;14.90;99.90
43858;DHT22;29507;51.284;5.758;2022-10-16T08:31:45;14.90;99.90
43858;DHT22;29507;51.284;5.758;2022-10-16T08:34:11;15.10;99.90
43858;DHT22;29507;51.284;5.758;2022-10-16T08:36:36;15.10;99.90
43858;DHT22;29507;51.284;5.758;2022-10-16T08:39:03;15.40;99.90
43858;DHT22;29507;51.284;5.758;2022-10-16T08:47:17;17.70;99.90
43858;DHT22;29507;51.284;5.758;2022-10-16T08:52:18;18.40;99.90
43858;DHT22;29507;51.284;5.758;2022-10-16T08:54:48;18.60;99.90
43858;DHT22;29507;51.284;5.758;2022-10-16T08:57:19;18.60;99.90
43858;DHT22;29507;51.284;5.758;2022-10-16T08:59:45;18.70;99.90
43858;DHT22;29507;51.284;5.758;2022-10-16T09:03:32;18.90;99.90
43858;DHT22;29507;51.284;5.758;2022-10-16T09:05:46;19.40;99.90
43858;DHT22;29507;51.284;5.758;2022-10-16T09:11:46;19.90;99.90
43858;DHT22;29507;51.284;5.758;2022-10-16T09:14:37;19.90;99.90
43858;DHT22;29507;51.284;5.758;2022-10-16T09:17:30;19.70;99.90
43858;DHT22;29507;51.284;5.758;2022-10-16T09:22:41;19.30;99.90
43858;DHT22;29507;51.284;5.758;2022-10-16T09:25:13;19.20;99.90
43858;DHT22;29507;51.284;5.758;2022-10-16T09:27:39;19.40;99.90
43858;DHT22;29507;51.284;5.758;2022-10-16T09:30:18;19.30;99.90
43858;DHT22;29507;51.284;5.758;2022-10-16T09:32:48;19.50;99.90
43858;DHT22;29507;51.284;5.758;2022-10-16T09:35:24;19.90;99.90
43858;DHT22;29507;51.284;5.758;2022-10-16T09:37:54;20.00;99.90
43858;DHT22;29507;51.284;5.758;2022-10-16T09:40:33;20.20;99.10
43858;DHT22;29507;51.284;5.758;2022-10-16T09:45:56;20.00;98.00
43858;DHT22;29507;51.284;5.758;2022-10-16T09:48:22;19.70;99.90
43858;DHT22;29507;51.284;5.758;2022-10-16T09:50:59;20.10;99.90
43858;DHT22;29507;51.284;5.758;2022-10-16T09:53:37;20.30;97.60
43858;DHT22;29507;51.284;5.758;2022-10-16T09:56:03;20.70;97.60
43858;DHT22;29507;51.284;5.758;2022-10-16T09:58:31;20.20;96.00
43858;DHT22;29507;51.284;5.758;2022-10-16T10:00:58;19.30;99.90
43858;DHT22;29507;51.284;5.758;2022-10-16T10:03:38;19.50;99.90
43858;DHT22;29507;51.284;5.758;2022-10-16T10:06:18;19.10;99.90
43858;DHT22;29507;51.284;5.758;2022-10-16T10:08:56;19.90;99.90
43858;DHT22;29507;51.284;5.758;2022-10-16T10:14:38;20.20;98.80
43858;DHT22;29507;51.284;5.758;2022-10-16T10:19:42;19.90;98.60
43858;DHT22;29507;51.284;5.758;2022-10-16T10:22:26;19.30;99.90
43858;DHT22;29507;51.284;5.758;2022-10-16T10:24:56;18.80;99.90
43858;DHT22;29507;51.284;5.758;2022-10-16T10:27:39;18.50;99.90
43858;DHT22;29507;51.284;5.758;2022-10-16T10:30:10;18.60;99.90
43858;DHT22;29507;51.284;5.758;2022-10-16T10:35:27;18.80;99.90
43858;DHT22;29507;51.284;5.758;2022-10-16T10:46:04;18.70;99.90
43858;DHT22;29507;51.284;5.758;2022-10-16T10:49:00;18.40;99.90
43858;DHT22;29507;51.284;5.758;2022-10-16T10:51:36;18.30;99.90
43858;DHT22;29507;51.284;5.758;2022-10-16T10:54:17;18.30;99.90
43858;DHT22;29507;51.284;5.758;2022-10-16T10:56:57;18.10;99.90
43858;DHT22;29507;51.284;5.758;2022-10-16T10:59:35;18.00;99.90
43858;DHT22;29507;51.284;5.758;2022-10-16T11:02:18;18.00;99.90
43858;DHT22;29507;51.284;5.758;2022-10-16T11:07:27;18.00;99.90
43858;DHT22;29507;51.284;5.758;2022-10-16T11:09:59;18.00;99.90
43858;DHT22;29507;51.284;5.758;2022-10-16T11:12:39;18.00;99.90
43858;DHT22;29507;51.284;5.758;2022-10-16T11:15:29;18.00;99.90
43858;DHT22;29507;51.284;5.758;2022-10-16T11:18:08;18.00;99.90
43858;DHT22;29507;51.284;5.758;2022-10-16T11:20:52;18.40;99.90
43858;DHT22;29507;51.284;5.758;2022-10-16T11:23:38;20.40;99.90
43858;DHT22;29507;51.284;5.758;2022-10-16T11:26:14;21.60;95.00
43858;DHT22;29507;51.284;5.758;2022-10-16T11:28:54;22.50;92.40
43858;DHT22;29507;51.284;5.758;2022-10-16T11:31:39;23.20;88.00
43858;DHT22;29507;51.284;5.758;2022-10-16T11:37:14;24.40;81.60
43858;DHT22;29507;51.284;5.758;2022-10-16T11:39:43;24.70;77.50
43858;DHT22;29507;51.284;5.758;2022-10-16T11:42:18;24.90;76.40
43858;DHT22;29507;51.284;5.758;2022-10-16T11:53:04;25.90;74.20
43858;DHT22;29507;51.284;5.758;2022-10-16T11:55:39;25.10;71.20
43858;DHT22;29507;51.284;5.758;2022-10-16T12:06:43;25.20;72.50
43858;DHT22;29507;51.284;5.758;2022-10-16T12:09:20;24.70;73.20
43858;DHT22;29507;51.284;5.758;2022-10-16T12:11:47;24.70;74.10
43858;DHT22;29507;51.284;5.758;2022-10-16T12:17:00;23.40;74.40
43858;DHT22;29507;51.284;5.758;2022-10-16T12:19:27;22.50;76.60
43858;DHT22;29507;51.284;5.758;2022-10-16T12:21:56;23.30;79.00
43858;DHT22;29507;51.284;5.758;2022-10-16T12:26:55;26.40;72.30
43858;DHT22;29507;51.284;5.758;2022-10-16T12:29:38;27.50;70.40
43858;DHT22;29507;51.284;5.758;2022-10-16T12:34:51;25.20;67.50
43858;DHT22;29507;51.284;5.758;2022-10-16T12:37:25;23.60;71.70
43858;DHT22;29507;51.284;5.758;2022-10-16T12:39:52;24.60;73.60
43858;DHT22;29507;51.284;5.758;2022-10-16T12:42:22;24.50;71.40
43858;DHT22;29507;51.284;5.758;2022-10-16T12:44:48;24.30;73.30
43858;DHT22;29507;51.284;5.758;2022-10-16T12:47:50;24.50;74.80
43858;DHT22;29507;51.284;5.758;2022-10-16T12:50:29;25.10;71.70
43858;DHT22;29507;51.284;5.758;2022-10-16T12:52:56;24.00;73.20
43858;DHT22;29507;51.284;5.758;2022-10-16T12:55:23;22.60;75.10
43858;DHT22;29507;51.284;5.758;2022-10-16T13:01:09;21.30;79.70
43858;DHT22;29507;51.284;5.758;2022-10-16T13:04:06;20.90;81.30
43858;DHT22;29507;51.284;5.758;2022-10-16T13:06:45;20.40;84.10
43858;DHT22;29507;51.284;5.758;2022-10-16T13:14:29;19.90;90.50
43858;DHT22;29507;51.284;5.758;2022-10-16T13:22:31;21.20;90.40
43858;DHT22;29507;51.284;5.758;2022-10-16T13:25:05;21.20;90.00
43858;DHT22;29507;51.284;5.758;2022-10-16T13:30:19;20.90;91.10
43858;DHT22;29507;51.284;5.758;2022-10-16T13:32:48;20.60;91.80
43858;DHT22;29507;51.284;5.758;2022-10-16T13:35:34;20.30;92.80
43858;DHT22;29507;51.284;5.758;2022-10-16T13:38:13;20.00;93.50
43858;DHT22;29507;51.284;5.758;2022-10-16T13:41:17;19.80;96.60
43858;DHT22;29507;51.284;5.758;2022-10-16T13:43:49;19.70;98.20
43858;DHT22;29507;51.284;5.758;2022-10-16T13:46:18;19.60;99.70
43858;DHT22;29507;51.284;5.758;2022-10-16T13:48:55;19.60;99.50
43858;DHT22;29507;51.284;5.758;2022-10-16T13:51:21;19.50;99.90
43858;DHT22;29507;51.284;5.758;2022-10-16T13:53:46;19.50;99.80
43858;DHT22;29507;51.284;5.758;2022-10-16T13:56:18;19.40;99.90
43858;DHT22;29507;51.284;5.758;2022-10-16T13:58:44;19.30;99.90
43858;DHT22;29507;51.284;5.758;2022-10-16T14:01:28;19.20;99.90
43858;DHT22;29507;51.284;5.758;2022-10-16T14:04:01;19.10;99.90
43858;DHT22;29507;51.284;5.758;2022-10-16T14:06:28;19.10;99.90
43858;DHT22;29507;51.284;5.758;2022-10-16T14:09:01;19.00;99.90
43858;DHT22;29507;51.284;5.758;2022-10-16T14:11:27;18.90;99.90
43858;DHT22;29507;51.284;5.758;2022-10-16T14:13:54;18.80;99.90
43858;DHT22;29507;51.284;5.758;2022-10-16T14:16:23;18.60;99.90
43858;DHT22;29507;51.284;5.758;2022-10-16T14:18:57;18.50;99.90
43858;DHT22;29507;51.284;5.758;2022-10-16T14:21:23;18.50;99.90
43858;DHT22;29507;51.284;5.758;2022-10-16T14:23:50;18.50;99.90
43858;DHT22;29507;51.284;5.758;2022-10-16T14:26:20;18.90;99.90
43858;DHT22;29507;51.284;5.758;2022-10-16T14:28:47;19.30;99.90
43858;DHT22;29507;51.284;5.758;2022-10-16T14:33:45;19.50;99.90
43858;DHT22;29507;51.284;5.758;2022-10-16T14:36:13;19.20;99.90
43858;DHT22;29507;51.284;5.758;2022-10-16T14:38:43;18.90;99.90
43858;DHT22;29507;51.284;5.758;2022-10-16T14:41:13;18.70;99.90
43858;DHT22;29507;51.284;5.758;2022-10-16T14:43:42;18.50;99.90
43858;DHT22;29507;51.284;5.758;2022-10-16T14:46:17;18.40;99.90
43858;DHT22;29507;51.284;5.758;2022-10-16T14:48:46;18.40;99.90
43858;DHT22;29507;51.284;5.758;2022-10-16T14:51:16;18.40;99.90
43858;DHT22;29507;51.284;5.758;2022-10-16T14:53:42;18.40;99.90
43858;DHT22;29507;51.284;5.758;2022-10-16T14:56:14;18.40;99.90
43858;DHT22;29507;51.284;5.758;2022-10-16T14:58:41;18.40;99.90
43858;DHT22;29507;51.284;5.758;2022-10-16T15:01:08;18.40;99.90
43858;DHT22;29507;51.284;5.758;2022-10-16T15:03:36;18.40;99.90
43858;DHT22;29507;51.284;5.758;2022-10-16T15:06:01;18.40;99.90
43858;DHT22;29507;51.284;5.758;2022-10-16T15:08:27;18.30;99.90
43858;DHT22;29507;51.284;5.758;2022-10-16T15:10:53;18.20;99.90
43858;DHT22;29507;51.284;5.758;2022-10-16T15:13:18;18.20;99.90
43858;DHT22;29507;51.284;5.758;2022-10-16T15:15:45;18.10;99.90
43858;DHT22;29507;51.284;5.758;2022-10-16T15:18:12;18.10;99.90
43858;DHT22;29507;51.284;5.758;2022-10-16T15:20:40;18.10;99.90
43858;DHT22;29507;51.284;5.758;2022-10-16T15:23:14;18.00;99.90
43858;DHT22;29507;51.284;5.758;2022-10-16T15:25:49;18.00;99.90
43858;DHT22;29507;51.284;5.758;2022-10-16T15:28:16;17.90;99.90
43858;DHT22;29507;51.284;5.758;2022-10-16T15:30:42;17.90;99.90
43858;DHT22;29507;51.284;5.758;2022-10-16T15:33:21;17.80;99.90
43858;DHT22;29507;51.284;5.758;2022-10-16T15:35:49;17.60;99.90
43858;DHT22;29507;51.284;5.758;2022-10-16T15:38:16;17.50;99.90
43858;DHT22;29507;51.284;5.758;2022-10-16T15:40:42;17.50;99.90
43858;DHT22;29507;51.284;5.758;2022-10-16T15:43:08;17.40;99.90
43858;DHT22;29507;51.284;5.758;2022-10-16T15:45:34;17.30;99.90
43858;DHT22;29507;51.284;5.758;2022-10-16T15:48:00;17.30;99.90
43858;DHT22;29507;51.284;5.758;2022-10-16T15:50:26;17.20;99.90
43858;DHT22;29507;51.284;5.758;2022-10-16T15:52:52;17.10;99.90
43858;DHT22;29507;51.284;5.758;2022-10-16T15:55:17;17.10;99.90
43858;DHT22;29507;51.284;5.758;2022-10-16T15:57:44;17.10;99.90
43858;DHT22;29507;51.284;5.758;2022-10-16T16:00:13;17.00;99.90
43858;DHT22;29507;51.284;5.758;2022-10-16T16:02:43;16.90;99.90
43858;DHT22;29507;51.284;5.758;2022-10-16T16:05:10;16.70;99.90
43858;DHT22;29507;51.284;5.758;2022-10-16T16:07:38;16.70;99.90
43858;DHT22;29507;51.284;5.758;2022-10-16T16:10:05;16.50;99.90
43858;DHT22;29507;51.284;5.758;2022-10-16T16:12:33;16.40;99.90
43858;DHT22;29507;51.284;5.758;2022-10-16T16:14:58;16.30;99.90
43858;DHT22;29507;51.284;5.758;2022-10-16T16:17:24;16.20;99.90
43858;DHT22;29507;51.284;5.758;2022-10-16T16:19:50;16.10;99.90
43858;DHT22;29507;51.284;5.758;2022-10-16T16:22:16;16.00;99.90
43858;DHT22;29507;51.284;5.758;2022-10-16T16:24:42;16.00;99.90
43858;DHT22;29507;51.284;5.758;2022-10-16T16:27:08;15.90;99.90
43858;DHT22;29507;51.284;5.758;2022-10-16T16:29:34;15.70;99.90
43858;DHT22;29507;51.284;5.758;2022-10-16T16:32:00;15.70;99.90
43858;DHT22;29507;51.284;5.758;2022-10-16T16:34:27;15.60;99.90
43858;DHT22;29507;51.284;5.758;2022-10-16T16:36:54;15.60;99.90
43858;DHT22;29507;51.284;5.758;2022-10-16T16:39:19;15.60;99.90
43858;DHT22;29507;51.284;5.758;2022-10-16T16:41:45;15.50;99.90
43858;DHT22;29507;51.284;5.758;2022-10-16T16:44:12;15.50;99.90
43858;DHT22;29507;51.284;5.758;2022-10-16T16:46:38;15.50;99.90
43858;DHT22;29507;51.284;5.758;2022-10-16T16:49:06;15.50;99.90
43858;DHT22;29507;51.284;5.758;2022-10-16T16:51:32;15.50;99.90
43858;DHT22;29507;51.284;5.758;2022-10-16T16:53:58;15.40;99.90
43858;DHT22;29507;51.284;5.758;2022-10-16T16:56:25;15.30;99.90
43858;DHT22;29507;51.284;5.758;2022-10-16T16:58:53;15.30;99.90
43858;DHT22;29507;51.284;5.758;2022-10-16T17:01:21;15.30;99.90
43858;DHT22;29507;51.284;5.758;2022-10-16T17:03:49;15.30;99.90
43858;DHT22;29507;51.284;5.758;2022-10-16T17:06:15;15.30;99.90
43858;DHT22;29507;51.284;5.758;2022-10-16T17:08:41;15.30;99.90
43858;DHT22;29507;51.284;5.758;2022-10-16T17:11:12;15.30;99.90
43858;DHT22;29507;51.284;5.758;2022-10-16T17:13:39;15.30;99.90
43858;DHT22;29507;51.284;5.758;2022-10-16T17:16:05;15.30;99.90
43858;DHT22;29507;51.284;5.758;2022-10-16T17:18:32;15.30;99.90
43858;DHT22;29507;51.284;5.758;2022-10-16T17:21:07;15.30;99.90